Nearby METAR Reports

 

EGTE - Exeter Airport, United Kingdom
Distance from station: NNE 25km
Updated: 18/06/2021 00:20
Few Clouds
Few Clouds
 Wind from NW
Wind: NW 8 mph , 13 km/h
Temperature: 15°C
Dew Point: 9°C
Humidity: 68%
Barometer: 1015 hPa
Clouds: Few Clouds
Visibility: 6 miles , 10 km
Cloud details: Few Clouds 914 m
2021/06/17 23:20 EGTE 172320Z 31007KT 9999 FEW030 15/09 Q1015
EGDY - Yeovilton (navy), United Kingdom
Distance from station: NE 83km
Updated: 18/06/2021 00:20
Mostly cloudy
Mostly cloudy
 Wind from NW
Wind: NW 3 mph , 6 km/h
Temperature: 17°C
Dew Point: 13°C
Humidity: 77%
Barometer: 1014 hPa
Clouds: Mostly cloudy
Visibility: 6 miles , 10 km
Cloud details: Few Clouds 610 m
Partly cloudy 914 m
Mostly cloudy 1219 m
2021/06/17 23:20 EGDY 172320Z 32003KT 9999 FEW020 SCT030 BKN040 17/13 Q1014 NOSIG RMK BLU BLU
 
EGFF - Cardiff-Wales Ar, United Kingdom
Distance from station: N 99km
Updated: 18/06/2021 00:20
Clear
Clear
 Wind from N
Wind: N 8 mph , 13 km/h
Temperature: 15°C
Dew Point: 10°C
Humidity: 72%
Barometer: 1015 hPa
Clouds: Clear
Visibility: 6 miles , 10 km
2021/06/17 23:20 EGFF 172320Z AUTO 01007KT 9999 NCD 15/10 Q1015
EGDX - St Athan Raf, United Kingdom
Distance from station: N 100km
Updated: 01/04/2019 13:50
NOT Current
Clear
Clear
 Wind from E
Wind: E 9 mph , 15 km/h
Temperature: 11°C
Dew Point: 5°C
Humidity: 67%
Barometer: 1019 hPa
Clouds: Clear
Visibility: 6 miles , 10 km
2019/04/01 12:50 EGDX 011250Z AUTO 10008KT 9999 NCD 11/05 Q1019
 
EGHQ - Newquay, United Kingdom
Distance from station: W 106km
Updated: 18/06/2021 00:20
Clear
Clear
 Wind from N
Wind: N 10 mph , 17 km/h
Temperature: 13°C
Dew Point: 10°C
Humidity: 82%
Barometer: 1016 hPa
Clouds: Clear
Visibility: 6 miles , 10 km
2021/06/17 23:20 EGHQ 172320Z AUTO 35009KT 9999 NCD 13/10 Q1016
EGGD - Bristol/Lulsgate, United Kingdom
Distance from station: NNE 111km
Updated: 18/06/2021 00:20
Partly cloudy
Partly cloudy
 Wind from N
Wind: N 12 mph , 19 km/h
Temperature: 15°C
Dew Point: 11°C
Humidity: 77%
Barometer: 1015 hPa
Clouds: Partly cloudy
Visibility: 6 miles , 10 km
Cloud details: Few Clouds 945 m
Partly cloudy 1250 m
2021/06/17 23:20 EGGD 172320Z AUTO 01010KT 9999 FEW031 SCT041 15/11 Q1015
 
EGHH - Bournemouth Airp, United Kingdom
Distance from station: ENE 122km
Updated: 17/06/2021 20:50
NOT Current
Few Clouds
Few Clouds
 Wind from N
Wind: N 5 mph , 7 km/h
Temperature: 17°C
Dew Point: 16°C
Humidity: 94%
Barometer: 1013 hPa
Clouds: Few Clouds
Visibility: 6 miles , 9 km
Cloud details: Few Clouds 1372 m
2021/06/17 19:50 EGHH 171950Z 36004KT 310V020 9000 FEW045 17/16 Q1013
EGJA - Alderney/Channel, United Kingdom
Distance from station: SE 127km
Updated: 17/06/2021 18:20
NOT Current
Partly cloudy
Partly cloudy
 Wind from NNW
Wind: NNW 9 mph , 15 km/h
Temperature: 14°C
Dew Point: 12°C
Humidity: 88%
Barometer: 1013 hPa
Clouds: Partly cloudy
Visibility: 6 miles , 10 km
Cloud details: Partly cloudy 671 m
2021/06/17 17:20 EGJA 171720Z 34008KT 9999 SCT022 14/12 Q1013
 
EGDR - Culdrose (navy), United Kingdom
Distance from station: WSW 133km
Updated: 18/06/2021 00:19
Partly cloudy
Partly cloudy
 Wind from NNW
Wind: NNW 12 mph , 19 km/h
Temperature: 13°C
Dew Point: 10°C
Humidity: 82%
Barometer: 1016 hPa
Clouds: Partly cloudy
Visibility: 6 miles , 10 km
Cloud details: Few Clouds 1067 m
Partly cloudy 7315 m
2021/06/17 23:19 EGDR 172319Z 34010KT 9999 FEW035 SCT240 13/10 Q1016 NOSIG RMK BLU BLU
EGUO - Colerne Raf, United Kingdom
Distance from station: NE 134km
Updated: 14/02/2019 22:50
NOT Current
Clear
Clear
 Wind from ENE
Wind: ENE 1 mph , 2 km/h
Temperature: 1°C
Dew Point: 0°C
Humidity: 93%
Barometer: 1029 hPa
Summary: Clear
Visibility: greater than 7 miles , 10 km
2019/02/14 22:50 EGUO 142250Z 06001KT CAVOK 01/00 Q1029 BLU NOSIG
 
EGJB - Guernsey Airport, United Kingdom
Distance from station: SSE 137km
Updated: 17/06/2021 23:50
Mostly cloudy
Mostly cloudy
 Wind from N
Wind: N 12 mph , 19 km/h
Temperature: 15°C
Dew Point: 13°C
Humidity: 88%
Barometer: 1013 hPa
Clouds: Mostly cloudy
Visibility: 6 miles , 10 km
Cloud details: Few Clouds 244 m
Mostly cloudy 1219 m
2021/06/17 22:50 EGJB 172250Z 35010KT 9999 FEW008 BKN040 15/13 Q1013
EGDM - Boscombe Down, United Kingdom
Distance from station: ENE 144km
Updated: 17/06/2021 23:50
Mist, Mostly cloudy
Mist, Mostly cloudy
 Wind from N
Wind: N 8 mph , 13 km/h
Temperature: 16°C
Dew Point: 15°C
Humidity: 94%
Barometer: 1014 hPa
Summary: Mist
Clouds: Mostly cloudy
Visibility: 6 miles , 9 km
Cloud details: Mostly cloudy 183 m
Mostly cloudy 518 m
2021/06/17 22:50 EGDM 172250Z AUTO 35007KT 9000 BR BKN006/// BKN017/// 16/15 Q1014 RERA
 
EGOP - Pembry Sands, United Kingdom
Distance from station: NNW 147km
Updated: 17/06/2021 23:50
Partly cloudy
Partly cloudy
 Wind from N
Wind: N 9 mph , 15 km/h
Temperature: 13°C
Dew Point: 8°C
Humidity: 72%
Barometer: 1016 hPa
Clouds: Partly cloudy
Visibility: 6 miles , 10 km
Cloud details: Partly cloudy 1433 m
2021/06/17 22:50 EGOP 172250Z AUTO 36008KT 9999 // SCT047/// 13/08 Q1016
EGVP - Middle Wallop, United Kingdom
Distance from station: ENE 153km
Updated: 17/06/2021 23:50
Light rain, Mostly cloudy
Light rain, Mostly cloudy
 Wind from N
Wind: N 6 mph , 9 km/h
Temperature: 17°C
Dew Point: 16°C
Humidity: 94%
Barometer: 1014 hPa
Summary: Light rain
Clouds: Mostly cloudy
Visibility: 3 miles , 5 km
Cloud details: Partly cloudy 91 m
Mostly cloudy 1829 m
2021/06/17 22:50 EGVP 172250Z AUTO 36005KT 4500 -RA SCT003/// BKN060/// 17/16 Q1014
 
EGHI - Southampton Wx C, United Kingdom
Distance from station: ENE 159km
Updated: 17/06/2021 20:20
NOT Current
Light rain, Partly cloudy
Light rain, Partly cloudy
 Wind from N
Wind: N 7 mph , 11 km/h
Temperature: 19°C
Dew Point: 18°C
Humidity: 94%
Barometer: 1013 hPa
Summary: Light rain
Clouds: Partly cloudy
Visibility: 3 miles , 5 km
Cloud details: Partly cloudy 183 m
2021/06/17 19:20 EGHI 171920Z 36006KT 5000 -RA SCT006 19/18 Q1013